createdAt,value
2019-03-26T00:01:45.836Z,101796.00
2019-03-26T00:04:17.166Z,101796.00
2019-03-26T00:06:47.565Z,101798.00
2019-03-26T00:09:17.909Z,101791.00
2019-03-26T00:11:48.316Z,101792.00
2019-03-26T00:14:18.645Z,101791.00
2019-03-26T00:16:49.033Z,101795.00
2019-03-26T00:19:19.389Z,101810.00
2019-03-26T00:21:49.767Z,101800.00
2019-03-26T00:24:20.129Z,101800.00
2019-03-26T00:26:50.579Z,101800.00
2019-03-26T00:29:20.929Z,101795.00
2019-03-26T00:31:51.317Z,101797.00
2019-03-26T00:34:21.676Z,101796.00
2019-03-26T00:36:52.078Z,101789.00
2019-03-26T00:39:22.420Z,101788.00
2019-03-26T00:41:52.810Z,101789.00
2019-03-26T00:44:23.284Z,101792.00
2019-03-26T00:46:53.683Z,101782.00
2019-03-26T00:49:24.039Z,101798.00
2019-03-26T00:51:54.426Z,101788.00
2019-03-26T00:54:25.162Z,101792.00
2019-03-26T00:56:55.642Z,101797.00
2019-03-26T00:59:26.004Z,101806.00
2019-03-26T01:01:56.535Z,101800.00
2019-03-26T01:04:32.746Z,101795.00
2019-03-26T01:07:00.067Z,101790.00
2019-03-26T01:09:30.436Z,101791.00
2019-03-26T01:12:00.829Z,101783.00
2019-03-26T01:14:31.193Z,101799.00
2019-03-26T01:17:01.588Z,101795.00
2019-03-26T01:19:31.946Z,101787.00
2019-03-26T01:22:02.336Z,101795.00
2019-03-26T01:24:32.698Z,101803.00
2019-03-26T01:27:03.089Z,101796.00
2019-03-26T01:29:34.422Z,101794.00
2019-03-26T01:32:05.485Z,101793.00
2019-03-26T01:34:45.408Z,101787.00
2019-03-26T01:37:07.922Z,101791.00
2019-03-26T01:39:38.290Z,101774.00
2019-03-26T01:42:08.673Z,101776.00
2019-03-26T01:44:39.031Z,101777.00
2019-03-26T01:47:09.426Z,101788.00
2019-03-26T01:49:39.855Z,101782.00
2019-03-26T01:52:10.173Z,101784.00
2019-03-26T01:54:40.536Z,101785.00
2019-03-26T01:57:10.918Z,101781.00
2019-03-26T01:59:41.288Z,101779.00
2019-03-26T02:02:11.682Z,101788.00
2019-03-26T02:04:42.042Z,101786.00
2019-03-26T02:07:12.434Z,101790.00
2019-03-26T02:09:42.797Z,101781.00
2019-03-26T02:12:13.191Z,101777.00
2019-03-26T02:14:43.553Z,101780.00
2019-03-26T02:17:13.943Z,101778.00
2019-03-26T02:19:44.308Z,101772.00
2019-03-26T02:22:14.701Z,101768.00
2019-03-26T02:24:45.058Z,101775.00
2019-03-26T02:27:15.444Z,101768.00
2019-03-26T02:29:45.797Z,101785.00
2019-03-26T02:32:16.192Z,101784.00
2019-03-26T02:34:46.553Z,101778.00
2019-03-26T02:37:16.950Z,101785.00
2019-03-26T02:39:47.306Z,101786.00
2019-03-26T02:42:17.704Z,101793.00
2019-03-26T02:44:49.047Z,101788.00
2019-03-26T02:47:19.431Z,101786.00
2019-03-26T02:49:49.798Z,101795.00
2019-03-26T02:52:20.187Z,101796.00
2019-03-26T02:54:50.553Z,101799.00
2019-03-26T02:57:20.930Z,101791.00
2019-03-26T02:59:51.301Z,101787.00
2019-03-26T03:02:21.873Z,101792.00
2019-03-26T03:04:52.218Z,101779.00
2019-03-26T03:07:22.605Z,101783.00
2019-03-26T03:09:52.959Z,101783.00
2019-03-26T03:12:23.346Z,101779.00
2019-03-26T03:14:53.710Z,101772.00
2019-03-26T03:17:24.105Z,101773.00
2019-03-26T03:19:54.469Z,101773.00
2019-03-26T03:22:24.849Z,101769.00
2019-03-26T03:24:56.196Z,101765.00
2019-03-26T03:27:26.584Z,101762.00
2019-03-26T03:29:57.019Z,101765.00
2019-03-26T03:32:27.401Z,101763.00
2019-03-26T03:34:57.806Z,101757.00
2019-03-26T03:37:29.768Z,101755.00
2019-03-26T03:40:00.469Z,101757.00
2019-03-26T03:42:30.943Z,101752.00
2019-03-26T03:45:01.303Z,101762.00
2019-03-26T03:47:33.796Z,101752.00
2019-03-26T03:50:05.570Z,101744.00
2019-03-26T03:52:41.970Z,101753.00
2019-03-26T03:55:12.863Z,101752.00
2019-03-26T03:57:45.392Z,101744.00
2019-03-26T04:00:37.080Z,101739.00
2019-03-26T04:03:09.075Z,101736.00
2019-03-26T04:05:39.742Z,101747.00
2019-03-26T04:08:10.129Z,101753.00
2019-03-26T04:10:40.489Z,101741.00
2019-03-26T04:13:10.871Z,101749.00
2019-03-26T04:15:41.239Z,101746.00
2019-03-26T04:18:11.619Z,101747.00
2019-03-26T04:20:41.974Z,101749.00
2019-03-26T04:23:12.343Z,101736.00
2019-03-26T04:25:42.706Z,101744.00
2019-03-26T04:28:13.098Z,101742.00
2019-03-26T04:30:43.460Z,101731.00
2019-03-26T04:33:13.848Z,101737.00
2019-03-26T04:35:44.236Z,101737.00
2019-03-26T04:38:14.596Z,101743.00
2019-03-26T04:40:45.048Z,101748.00
2019-03-26T04:43:18.978Z,101745.00
2019-03-26T04:45:48.480Z,101747.00
2019-03-26T04:48:18.841Z,101751.00
2019-03-26T04:50:49.372Z,101752.00
2019-03-26T04:53:19.752Z,101749.00
2019-03-26T04:55:50.109Z,101768.00
2019-03-26T04:58:20.495Z,101761.00
2019-03-26T05:00:51.085Z,101763.00
2019-03-26T05:03:21.492Z,101765.00
2019-03-26T05:05:51.865Z,101782.00
2019-03-26T05:08:22.267Z,101774.00
2019-03-26T05:10:52.620Z,101782.00
2019-03-26T05:13:23.027Z,101772.00
2019-03-26T05:15:53.416Z,101791.00
2019-03-26T05:18:23.806Z,101800.00
2019-03-26T05:20:54.161Z,101801.00
2019-03-26T05:23:24.546Z,101789.00
2019-03-26T05:25:54.910Z,101797.00
2019-03-26T05:28:25.298Z,101787.00
2019-03-26T05:30:55.661Z,101800.00
2019-03-26T05:33:26.053Z,101802.00
2019-03-26T05:35:56.410Z,101800.00
2019-03-26T05:38:26.795Z,101809.00
2019-03-26T05:40:57.158Z,101805.00
2019-03-26T05:43:27.533Z,101802.00
2019-03-26T05:45:57.885Z,101805.00
2019-03-26T05:48:28.268Z,101803.00
2019-03-26T05:50:58.626Z,101802.00
2019-03-26T05:53:28.999Z,101809.00
2019-03-26T05:55:59.364Z,101819.00
2019-03-26T05:58:29.750Z,101819.00
2019-03-26T06:01:00.116Z,101826.00
2019-03-26T06:03:30.546Z,101810.00
2019-03-26T06:06:00.910Z,101826.00
2019-03-26T06:08:31.296Z,101809.00
2019-03-26T06:11:01.652Z,101815.00
2019-03-26T06:13:32.030Z,101812.00
2019-03-26T06:16:02.390Z,101815.00
2019-03-26T06:18:32.766Z,101819.00
2019-03-26T06:21:03.128Z,101816.00
2019-03-26T06:23:33.499Z,101816.00
2019-03-26T06:26:03.867Z,101819.00
2019-03-26T06:28:34.253Z,101807.00
2019-03-26T06:31:04.687Z,101806.00
2019-03-26T06:33:35.057Z,101805.00
2019-03-26T06:36:05.420Z,101796.00
2019-03-26T06:38:35.793Z,101805.00
2019-03-26T06:41:06.160Z,101818.00
2019-03-26T06:43:36.542Z,101803.00
2019-03-26T06:46:06.893Z,101808.00
2019-03-26T06:48:37.336Z,101817.00
2019-03-26T06:51:07.687Z,101802.00
2019-03-26T06:53:39.028Z,101807.00
2019-03-26T06:56:09.380Z,101813.00
2019-03-26T06:58:39.762Z,101810.00
2019-03-26T07:01:10.197Z,101810.00
2019-03-26T07:03:40.582Z,101815.00
2019-03-26T07:06:10.938Z,101821.00
2019-03-26T07:08:41.327Z,101826.00
2019-03-26T07:11:11.737Z,101812.00
2019-03-26T07:13:42.173Z,101828.00
2019-03-26T07:16:12.589Z,101833.00
2019-03-26T07:18:42.960Z,101818.00
2019-03-26T07:21:13.312Z,101816.00
2019-03-26T07:23:43.682Z,101814.00
2019-03-26T07:26:14.082Z,101814.00
2019-03-26T07:28:44.457Z,101812.00
2019-03-26T07:31:14.836Z,101818.00
2019-03-26T07:33:45.249Z,101812.00
2019-03-26T07:36:15.598Z,101815.00
2019-03-26T07:38:45.974Z,101807.00
2019-03-26T07:41:16.332Z,101807.00
2019-03-26T07:43:46.882Z,101799.00
2019-03-26T07:46:17.245Z,101798.00
2019-03-26T07:48:47.722Z,101804.00
2019-03-26T07:51:18.093Z,101808.00
2019-03-26T07:53:48.457Z,101796.00
2019-03-26T07:56:18.842Z,101777.00
2019-03-26T07:58:49.205Z,101773.00
2019-03-26T08:01:19.592Z,101772.00
2019-03-26T08:03:49.954Z,101764.00
2019-03-26T08:06:20.353Z,101751.00
2019-03-26T08:08:50.712Z,101739.00
2019-03-26T08:11:21.092Z,101756.00
2019-03-26T08:13:51.474Z,101747.00
2019-03-26T08:16:21.868Z,101751.00
2019-03-26T08:18:52.228Z,101752.00
2019-03-26T08:21:23.579Z,101757.00
2019-03-26T08:23:53.978Z,101751.00
2019-03-26T08:26:24.369Z,101750.00
2019-03-26T08:28:55.802Z,101729.00
2019-03-26T08:31:26.184Z,101742.00
2019-03-26T08:33:56.540Z,101760.00
2019-03-26T08:36:27.306Z,101761.00
2019-03-26T08:38:57.663Z,101765.00
2019-03-26T08:41:28.055Z,101779.00
2019-03-26T08:43:58.420Z,101780.00
2019-03-26T08:46:28.803Z,101779.00
2019-03-26T08:48:59.177Z,101779.00
2019-03-26T08:51:29.564Z,101770.00
2019-03-26T08:53:59.927Z,101769.00
2019-03-26T08:56:31.694Z,101775.00
2019-03-26T08:59:01.974Z,101777.00
2019-03-26T09:01:32.525Z,101770.00
2019-03-26T09:04:02.879Z,101773.00
2019-03-26T09:06:34.224Z,101752.00
2019-03-26T09:09:07.100Z,101746.00
2019-03-26T09:11:37.558Z,101759.00
2019-03-26T09:14:07.923Z,101729.00
2019-03-26T09:16:38.318Z,101748.00
2019-03-26T09:19:08.691Z,101754.00
2019-03-26T09:21:39.122Z,101765.00
2019-03-26T09:24:10.463Z,101770.00
2019-03-26T09:26:40.858Z,101768.00
2019-03-26T09:29:11.224Z,101780.00
2019-03-26T09:31:41.614Z,101773.00
2019-03-26T09:34:11.978Z,101758.00
2019-03-26T09:36:42.363Z,101751.00
2019-03-26T09:39:12.815Z,101752.00
2019-03-26T09:41:43.261Z,101744.00
2019-03-26T09:44:13.618Z,101733.00
2019-03-26T09:46:44.111Z,101740.00
2019-03-26T09:49:14.477Z,101736.00
2019-03-26T09:51:44.871Z,101755.00
2019-03-26T09:54:15.232Z,101761.00
2019-03-26T09:56:45.626Z,101759.00
2019-03-26T09:59:16.023Z,101733.00
2019-03-26T10:01:50.754Z,101743.00
2019-03-26T10:04:27.319Z,101751.00
2019-03-26T10:22:08.273Z,101748.00
2019-03-26T10:24:40.195Z,101728.00
2019-03-26T10:27:10.630Z,101730.00
2019-03-26T10:29:43.854Z,101749.00
2019-03-26T10:32:14.251Z,101748.00
2019-03-26T10:34:44.700Z,101741.00
2019-03-26T10:37:15.117Z,101735.00
2019-03-26T10:39:45.544Z,101731.00
2019-03-26T10:42:16.061Z,101735.00
2019-03-26T10:44:46.431Z,101730.00
2019-03-26T10:47:16.835Z,101738.00
2019-03-26T10:49:47.286Z,101733.00
2019-03-26T10:52:17.688Z,101728.00
2019-03-26T10:54:56.037Z,101701.00
2019-03-26T10:57:26.425Z,101699.00
2019-03-26T10:59:56.867Z,101706.00
2019-03-26T11:02:27.475Z,101701.00
2019-03-26T11:04:58.125Z,101707.00
2019-03-26T11:07:28.591Z,101703.00
2019-03-26T11:09:58.960Z,101696.00
2019-03-26T11:12:29.360Z,101697.00
2019-03-26T11:14:59.726Z,101713.00
2019-03-26T11:17:30.105Z,101716.00
2019-03-26T11:20:00.476Z,101711.00
2019-03-26T11:22:31.817Z,101715.00
2019-03-26T11:25:02.565Z,101712.00
2019-03-26T11:27:33.914Z,101728.00
2019-03-26T11:30:07.816Z,101713.00
2019-03-26T11:32:38.555Z,101723.00
2019-03-26T11:35:10.173Z,101718.00
2019-03-26T11:37:40.754Z,101720.00
2019-03-26T11:40:11.382Z,101722.00
2019-03-26T11:42:41.828Z,101715.00
2019-03-26T11:45:12.723Z,101722.00
2019-03-26T11:47:43.112Z,101711.00
2019-03-26T11:50:15.002Z,101694.00
2019-03-26T11:52:45.403Z,101701.00
2019-03-26T11:55:35.871Z,101687.00
2019-03-26T11:58:06.249Z,101690.00
2019-03-26T12:00:38.530Z,101688.00
2019-03-26T12:03:08.965Z,101682.00
2019-03-26T12:05:39.427Z,101685.00
2019-03-26T12:08:09.880Z,101677.00
2019-03-26T12:10:40.240Z,101671.00
2019-03-26T12:13:10.607Z,101694.00
2019-03-26T12:15:40.996Z,101684.00
2019-03-26T12:18:11.425Z,101679.00
2019-03-26T12:20:41.823Z,101684.00
2019-03-26T12:23:12.225Z,101696.00
2019-03-26T12:25:42.614Z,101705.00
2019-03-26T12:28:13.037Z,101706.00
2019-03-26T12:30:43.723Z,101715.00
2019-03-26T12:33:14.080Z,101720.00
2019-03-26T12:35:44.527Z,101721.00
2019-03-26T12:38:18.060Z,101717.00
2019-03-26T12:40:48.803Z,101720.00
2019-03-26T12:43:19.401Z,101708.00
2019-03-26T12:45:51.183Z,101709.00
2019-03-26T12:48:21.536Z,101717.00
2019-03-26T12:50:51.937Z,101707.00
2019-03-26T12:53:22.312Z,101711.00
2019-03-26T12:55:52.776Z,101714.00
2019-03-26T12:58:31.715Z,101725.00
2019-03-26T13:00:56.198Z,101720.00
2019-03-26T13:03:26.630Z,101722.00
2019-03-26T13:05:57.013Z,101714.00
2019-03-26T13:08:27.380Z,101727.00
2019-03-26T13:10:57.763Z,101730.00
2019-03-26T13:13:28.133Z,101730.00
2019-03-26T13:15:58.905Z,101726.00
2019-03-26T13:18:29.266Z,101730.00
2019-03-26T13:20:59.658Z,101729.00
2019-03-26T13:23:30.046Z,101715.00
2019-03-26T13:26:00.503Z,101705.00
2019-03-26T13:28:30.875Z,101718.00
2019-03-26T13:31:01.245Z,101728.00
2019-03-26T13:33:31.634Z,101723.00
2019-03-26T13:36:03.157Z,101730.00
2019-03-26T13:38:33.534Z,101729.00
2019-03-26T13:41:04.991Z,101724.00
2019-03-26T13:43:35.347Z,101721.00
2019-03-26T13:46:05.728Z,101715.00
2019-03-26T13:48:36.144Z,101714.00
2019-03-26T13:51:06.546Z,101722.00
2019-03-26T13:53:36.911Z,101729.00
2019-03-26T13:56:07.314Z,101727.00
2019-03-26T13:58:37.673Z,101719.00
2019-03-26T14:01:08.069Z,101719.00
2019-03-26T14:03:38.431Z,101715.00
2019-03-26T14:06:08.843Z,101723.00
2019-03-26T14:08:39.224Z,101710.00
2019-03-26T14:11:09.614Z,101715.00
2019-03-26T14:13:40.050Z,101725.00
2019-03-26T14:16:10.455Z,101727.00
2019-03-26T14:18:40.826Z,101720.00
2019-03-26T14:21:11.377Z,101723.00
2019-03-26T14:23:41.825Z,101731.00
2019-03-26T14:26:12.249Z,101731.00
2019-03-26T14:28:42.629Z,101734.00
2019-03-26T14:31:13.146Z,101726.00
2019-03-26T14:33:43.511Z,101734.00
2019-03-26T14:36:25.834Z,101736.00
2019-03-26T14:39:01.949Z,101728.00
2019-03-26T14:44:21.219Z,101734.00
2019-03-26T14:56:15.055Z,101731.00
2019-03-26T15:07:54.260Z,101732.00
2019-03-26T15:10:25.586Z,101731.00
2019-03-26T15:12:55.991Z,101742.00
2019-03-26T15:15:26.349Z,101745.00
2019-03-26T15:17:56.746Z,101742.00
2019-03-26T15:20:27.110Z,101740.00
2019-03-26T15:22:58.234Z,101741.00
2019-03-26T15:25:28.728Z,101741.00
2019-03-26T15:27:59.100Z,101747.00
2019-03-26T15:30:29.487Z,101745.00
2019-03-26T15:32:59.867Z,101746.00
2019-03-26T15:35:30.246Z,101734.00
2019-03-26T15:38:00.637Z,101743.00
2019-03-26T15:40:30.986Z,101736.00
2019-03-26T15:43:01.359Z,101733.00
2019-03-26T15:45:32.857Z,101738.00
2019-03-26T15:48:03.237Z,101740.00
2019-03-26T15:50:45.555Z,101733.00
2019-03-26T15:53:16.353Z,101734.00
2019-03-26T15:55:47.750Z,101727.00
2019-03-26T15:58:18.141Z,101731.00
2019-03-26T16:00:51.369Z,101747.00
2019-03-26T16:03:22.571Z,101744.00
2019-03-26T16:05:53.204Z,101745.00
2019-03-26T16:08:23.582Z,101750.00
2019-03-26T16:10:53.934Z,101748.00
2019-03-26T16:13:24.318Z,101757.00
2019-03-26T16:15:54.739Z,101754.00
2019-03-26T16:18:25.108Z,101763.00
2019-03-26T16:20:55.563Z,101758.00
2019-03-26T16:23:25.929Z,101767.00
2019-03-26T16:25:56.468Z,101766.00
2019-03-26T16:28:26.850Z,101778.00
2019-03-26T16:30:57.296Z,101774.00
2019-03-26T16:33:27.605Z,101780.00
2019-03-26T16:35:57.987Z,101784.00
2019-03-26T16:38:28.424Z,101781.00
2019-03-26T16:41:07.585Z,101773.00
2019-03-26T16:43:39.754Z,101786.00
2019-03-26T16:46:10.141Z,101783.00
2019-03-26T16:48:41.583Z,101789.00
2019-03-26T16:51:11.944Z,101795.00
2019-03-26T16:53:42.327Z,101798.00
2019-03-26T16:56:12.706Z,101797.00
2019-03-26T16:58:43.095Z,101800.00
2019-03-26T17:01:14.428Z,101797.00
2019-03-26T17:03:44.820Z,101794.00
2019-03-26T17:06:15.251Z,101795.00
2019-03-26T17:08:45.634Z,101794.00
2019-03-26T17:11:15.985Z,101790.00
2019-03-26T17:13:46.377Z,101795.00
2019-03-26T17:16:16.816Z,101799.00
2019-03-26T17:18:48.270Z,101793.00
2019-03-26T17:21:18.685Z,101797.00
2019-03-26T17:23:48.998Z,101803.00
2019-03-26T17:26:19.937Z,101804.00
2019-03-26T17:28:51.293Z,101806.00
2019-03-26T17:31:22.232Z,101811.00
2019-03-26T17:33:52.607Z,101803.00
2019-03-26T17:36:23.051Z,101813.00
2019-03-26T17:38:53.495Z,101804.00
2019-03-26T17:41:23.853Z,101820.00
2019-03-26T17:43:55.187Z,101824.00
2019-03-26T17:46:25.590Z,101831.00
2019-03-26T17:48:55.991Z,101833.00
2019-03-26T17:51:26.386Z,101842.00
2019-03-26T17:53:56.798Z,101838.00
2019-03-26T17:56:27.145Z,101851.00
2019-03-26T17:58:57.547Z,101845.00
2019-03-26T18:01:28.014Z,101843.00
2019-03-26T18:03:58.386Z,101846.00
2019-03-26T18:06:28.776Z,101849.00
2019-03-26T18:09:00.129Z,101861.00
2019-03-26T18:11:30.533Z,101862.00
2019-03-26T18:14:00.985Z,101874.00
2019-03-26T18:16:31.447Z,101870.00
2019-03-26T18:19:01.847Z,101877.00
2019-03-26T18:21:32.208Z,101878.00
2019-03-26T18:24:02.581Z,101880.00
2019-03-26T18:26:45.553Z,101877.00
2019-03-26T18:29:15.914Z,101888.00
2019-03-26T18:31:46.305Z,101885.00
2019-03-26T18:34:16.679Z,101883.00
2019-03-26T18:36:47.063Z,101888.00
2019-03-26T18:39:17.409Z,101893.00
2019-03-26T18:41:47.800Z,101900.00
2019-03-26T18:44:18.174Z,101904.00
2019-03-26T18:46:48.565Z,101903.00
2019-03-26T18:49:18.953Z,101905.00
2019-03-26T18:51:49.350Z,101906.00
2019-03-26T18:54:19.815Z,101917.00
2019-03-26T18:56:50.230Z,101917.00
2019-03-26T18:59:20.659Z,101930.00
2019-03-26T19:18:14.128Z,101950.00
2019-03-26T20:15:46.752Z,102007.00
2019-03-26T20:18:18.435Z,102020.00
2019-03-26T20:20:48.818Z,102017.00
2019-03-26T20:23:19.190Z,102019.00
2019-03-26T20:25:52.553Z,102020.00
2019-03-26T20:28:22.931Z,102023.00
2019-03-26T20:30:53.378Z,102029.00
2019-03-26T20:33:23.740Z,102029.00
2019-03-26T20:35:55.166Z,102022.00
2019-03-26T20:38:25.551Z,102030.00
2019-03-26T20:40:56.000Z,102032.00
2019-03-26T20:43:36.712Z,102034.00
2019-03-26T20:46:00.094Z,102027.00
2019-03-26T20:48:30.911Z,102034.00
2019-03-26T20:51:06.989Z,102039.00
2019-03-26T20:53:42.841Z,102037.00
2019-03-26T20:56:13.376Z,102047.00
2019-03-26T20:58:44.448Z,102048.00
2019-03-26T21:01:18.087Z,102050.00
2019-03-26T21:06:56.536Z,102049.00
2019-03-26T21:12:23.181Z,102066.00
2019-03-26T22:00:55.313Z,102099.00
2019-03-26T22:03:26.801Z,102110.00
2019-03-26T22:06:02.708Z,102110.00
2019-03-26T22:11:27.981Z,102105.00
2019-03-26T22:16:56.297Z,102113.00
2019-03-26T22:19:28.856Z,102131.00
2019-03-26T22:22:03.280Z,102135.00
2019-03-26T22:24:34.821Z,102138.00
2019-03-26T22:27:11.182Z,102132.00
2019-03-26T22:29:45.510Z,102138.00
2019-03-26T22:35:06.740Z,102142.00
2019-03-26T22:38:03.505Z,102133.00
2019-03-26T22:52:11.491Z,102148.00
2019-03-26T23:08:54.893Z,102141.00
2019-03-26T23:19:27.813Z,102140.00
2019-03-26T23:47:14.379Z,102160.00
2019-03-26T23:49:49.944Z,102157.00
